createdAt,value
2023-10-09T00:01:25.163Z,85.62
2023-10-09T00:03:53.983Z,85.57
2023-10-09T00:06:23.368Z,85.52
2023-10-09T00:08:53.502Z,85.41
2023-10-09T00:11:20.758Z,85.20
2023-10-09T00:13:49.092Z,85.41
2023-10-09T00:16:19.012Z,85.36
2023-10-09T00:18:48.093Z,85.36
2023-10-09T00:21:18.181Z,86.08
2023-10-09T00:23:46.628Z,86.12
2023-10-09T00:26:15.138Z,86.14
2023-10-09T00:28:49.702Z,85.76
2023-10-09T00:31:18.621Z,85.44
2023-10-09T00:33:46.727Z,84.95
2023-10-09T00:36:13.734Z,85.27
2023-10-09T00:38:41.206Z,85.43
2023-10-09T00:41:08.133Z,85.09
2023-10-09T00:43:36.548Z,84.60
2023-10-09T00:46:06.767Z,84.44
2023-10-09T00:48:34.210Z,84.19
2023-10-09T00:51:02.854Z,83.64
2023-10-09T00:53:30.303Z,83.57
2023-10-09T00:55:59.048Z,83.98
2023-10-09T00:58:26.966Z,84.18
2023-10-09T01:00:55.585Z,85.43
2023-10-09T01:03:23.032Z,85.50
2023-10-09T01:05:53.641Z,86.23
2023-10-09T01:08:22.594Z,85.63
2023-10-09T01:10:49.948Z,86.12
2023-10-09T01:13:18.415Z,85.78
2023-10-09T01:15:45.582Z,85.74
2023-10-09T01:18:15.654Z,85.39
2023-10-09T01:20:43.429Z,85.70
2023-10-09T01:23:13.372Z,85.37
2023-10-09T01:25:40.562Z,85.51
2023-10-09T01:28:07.801Z,85.16
2023-10-09T01:30:37.155Z,84.91
2023-10-09T01:33:05.085Z,84.34
2023-10-09T01:35:32.039Z,84.20
2023-10-09T01:37:59.024Z,84.12
2023-10-09T01:40:27.341Z,83.43
2023-10-09T01:42:54.337Z,83.65
2023-10-09T01:45:21.648Z,84.04
2023-10-09T01:47:48.567Z,84.15
2023-10-09T01:50:17.387Z,84.08
2023-10-09T01:52:46.446Z,84.17
2023-10-09T01:55:15.064Z,83.87
2023-10-09T01:57:43.291Z,84.26
2023-10-09T02:00:12.994Z,84.20
2023-10-09T02:02:40.489Z,83.82
2023-10-09T02:05:10.471Z,83.38
2023-10-09T02:07:37.782Z,83.73
2023-10-09T02:10:06.926Z,83.71
2023-10-09T02:12:34.801Z,83.68
2023-10-09T02:15:04.873Z,83.82
2023-10-09T02:17:32.385Z,84.76
2023-10-09T02:19:59.640Z,84.44
2023-10-09T02:22:26.722Z,84.09
2023-10-09T02:24:53.993Z,84.21
2023-10-09T02:27:21.113Z,84.42
2023-10-09T02:29:48.312Z,84.83
2023-10-09T02:32:19.308Z,84.85
2023-10-09T02:34:46.432Z,84.16
2023-10-09T02:37:14.387Z,82.72
2023-10-09T02:39:41.839Z,82.68
2023-10-09T02:42:08.829Z,82.64
2023-10-09T02:44:36.112Z,81.84
2023-10-09T02:47:03.074Z,81.70
2023-10-09T02:49:31.974Z,80.92
2023-10-09T02:51:59.193Z,81.08
2023-10-09T02:54:26.697Z,81.46
2023-10-09T02:56:54.732Z,82.88
2023-10-09T02:59:22.815Z,83.07
2023-10-09T03:01:51.776Z,83.43
2023-10-09T03:04:21.154Z,83.72
2023-10-09T03:06:50.478Z,84.11
2023-10-09T03:09:18.458Z,84.61
2023-10-09T03:11:47.715Z,84.57
2023-10-09T03:14:16.087Z,84.87
2023-10-09T03:16:42.990Z,84.46
2023-10-09T03:19:10.077Z,84.25
2023-10-09T03:21:36.987Z,84.90
2023-10-09T03:24:06.462Z,85.24
2023-10-09T03:26:34.910Z,85.35
2023-10-09T03:29:02.146Z,85.28
2023-10-09T03:31:30.223Z,85.16
2023-10-09T03:33:57.187Z,84.76
2023-10-09T03:36:25.373Z,84.20
2023-10-09T03:38:52.382Z,83.47
2023-10-09T03:41:20.843Z,83.01
2023-10-09T03:43:48.046Z,81.71
2023-10-09T03:46:17.712Z,81.32
2023-10-09T03:48:45.331Z,81.10
2023-10-09T03:51:13.192Z,82.94
2023-10-09T03:53:40.837Z,83.64
2023-10-09T03:56:09.291Z,84.42
2023-10-09T03:58:38.323Z,83.95
2023-10-09T04:01:09.199Z,84.35
2023-10-09T04:03:36.647Z,84.13
2023-10-09T04:06:04.413Z,84.90
2023-10-09T04:08:31.351Z,84.82
2023-10-09T04:10:58.946Z,85.01
2023-10-09T04:13:25.960Z,84.49
2023-10-09T04:15:54.238Z,84.37
2023-10-09T04:18:22.096Z,84.54
2023-10-09T04:20:49.456Z,84.53
2023-10-09T04:23:16.610Z,84.58
2023-10-09T04:25:44.045Z,83.63
2023-10-09T04:28:11.790Z,83.53
2023-10-09T04:30:40.902Z,82.52
2023-10-09T04:33:09.710Z,82.70
2023-10-09T04:35:37.287Z,82.25
2023-10-09T04:38:04.625Z,82.60
2023-10-09T04:40:32.290Z,82.40
2023-10-09T04:42:59.457Z,82.78
2023-10-09T04:45:26.983Z,82.45
2023-10-09T04:47:55.055Z,82.63
2023-10-09T04:50:23.756Z,82.82
2023-10-09T04:52:50.725Z,83.94
2023-10-09T04:55:18.143Z,83.46
2023-10-09T04:57:48.319Z,83.61
2023-10-09T05:00:19.324Z,83.39
2023-10-09T05:02:50.154Z,82.92
2023-10-09T05:05:18.603Z,83.65
2023-10-09T05:07:47.020Z,84.09
2023-10-09T05:10:14.546Z,84.47
2023-10-09T05:12:41.664Z,84.65
2023-10-09T05:15:10.276Z,84.48
2023-10-09T05:17:38.701Z,87.92
2023-10-09T05:20:07.604Z,84.21
2023-10-09T05:22:34.647Z,83.08
2023-10-09T05:25:03.860Z,83.31
2023-10-09T05:27:31.157Z,82.85
2023-10-09T05:29:58.360Z,82.40
2023-10-09T05:32:25.499Z,82.29
2023-10-09T05:34:52.996Z,81.87
2023-10-09T05:37:20.212Z,82.75
2023-10-09T05:39:49.497Z,83.00
2023-10-09T05:42:19.288Z,84.01
2023-10-09T05:44:48.109Z,84.09
2023-10-09T05:47:15.068Z,83.16
2023-10-09T05:49:42.979Z,82.85
2023-10-09T05:52:10.409Z,84.23
2023-10-09T05:54:37.634Z,84.49
2023-10-09T05:57:04.803Z,84.54
2023-10-09T05:59:33.023Z,85.64
2023-10-09T06:02:01.073Z,87.85
2023-10-09T06:04:28.873Z,89.56
2023-10-09T06:06:55.862Z,84.78
2023-10-09T06:09:23.408Z,83.42
2023-10-09T06:11:51.681Z,85.94
2023-10-09T06:14:20.977Z,83.62
2023-10-09T06:17:08.625Z,82.96
2023-10-09T06:19:35.789Z,82.90
2023-10-09T06:22:02.842Z,82.02
2023-10-09T06:24:29.887Z,82.21
2023-10-09T06:26:56.865Z,82.72
2023-10-09T06:29:24.201Z,83.91
2023-10-09T06:31:51.116Z,83.46
2023-10-09T06:34:19.909Z,82.71
2023-10-09T06:36:47.103Z,82.59
2023-10-09T06:39:14.854Z,81.67
2023-10-09T06:41:41.764Z,82.10
2023-10-09T06:44:10.572Z,80.53
2023-10-09T06:46:38.663Z,79.56
2023-10-09T06:49:05.735Z,80.71
2023-10-09T06:51:34.141Z,80.38
2023-10-09T06:54:02.343Z,81.72
2023-10-09T06:56:31.131Z,82.54
2023-10-09T06:58:59.282Z,80.90
2023-10-09T07:01:26.740Z,81.10
2023-10-09T07:03:54.528Z,80.72
2023-10-09T07:06:22.609Z,80.35
2023-10-09T07:08:53.942Z,81.66
2023-10-09T07:11:20.894Z,81.33
2023-10-09T07:13:48.169Z,81.05
2023-10-09T07:16:15.271Z,79.20
2023-10-09T07:18:43.575Z,81.24
2023-10-09T07:21:14.763Z,79.50
2023-10-09T07:23:42.059Z,78.86
2023-10-09T07:26:10.358Z,81.75
2023-10-09T07:28:37.633Z,80.48
2023-10-09T07:31:05.481Z,80.20
2023-10-09T07:33:32.888Z,80.17
2023-10-09T07:36:03.047Z,80.14
2023-10-09T07:38:30.274Z,80.38
2023-10-09T07:40:58.082Z,77.67
2023-10-09T07:43:29.297Z,77.89
2023-10-09T07:45:59.445Z,76.96
2023-10-09T07:48:27.834Z,75.98
2023-10-09T07:50:57.575Z,75.89
2023-10-09T07:53:24.977Z,76.69
2023-10-09T07:55:52.472Z,75.69
2023-10-09T07:58:22.428Z,74.18
2023-10-09T08:00:54.993Z,75.90
2023-10-09T08:03:22.321Z,75.14
2023-10-09T08:05:49.718Z,77.68
2023-10-09T08:08:27.105Z,76.02
2023-10-09T08:11:03.019Z,75.32
2023-10-09T08:13:29.844Z,74.15
2023-10-09T08:15:58.900Z,74.34
2023-10-09T08:18:26.091Z,73.12
2023-10-09T08:20:54.257Z,73.62
2023-10-09T08:23:22.543Z,73.71
2023-10-09T08:25:51.333Z,73.31
2023-10-09T08:28:18.901Z,73.47
2023-10-09T08:30:46.527Z,72.07
2023-10-09T08:35:46.361Z,73.83
2023-10-09T08:38:13.332Z,72.33
2023-10-09T08:40:42.558Z,72.54
2023-10-09T08:43:15.605Z,71.71
2023-10-09T08:45:48.032Z,72.27
2023-10-09T08:48:17.192Z,72.63
2023-10-09T08:50:46.712Z,71.86
2023-10-09T08:53:14.742Z,70.37
2023-10-09T08:55:42.831Z,69.94
2023-10-09T08:58:10.639Z,69.88
2023-10-09T09:00:42.791Z,69.29
2023-10-09T09:03:10.629Z,66.79
2023-10-09T09:05:41.570Z,69.18
2023-10-09T09:08:24.950Z,68.55
2023-10-09T09:10:58.546Z,69.85
2023-10-09T09:13:30.124Z,69.63
2023-10-09T09:15:57.536Z,67.83
2023-10-09T09:18:24.566Z,65.40
2023-10-09T09:20:53.841Z,66.15
2023-10-09T09:23:22.236Z,66.90
2023-10-09T09:25:51.005Z,67.23
2023-10-09T09:28:17.921Z,67.11
2023-10-09T09:30:45.101Z,66.82
2023-10-09T09:33:20.752Z,66.97
2023-10-09T09:35:59.890Z,64.85
2023-10-09T09:38:28.359Z,62.57
2023-10-09T09:40:58.319Z,61.17
2023-10-09T09:43:29.067Z,60.72
2023-10-09T09:45:58.809Z,59.40
2023-10-09T09:48:28.331Z,58.29
2023-10-09T09:50:55.541Z,58.40
2023-10-09T09:53:25.093Z,57.09
2023-10-09T09:55:55.087Z,56.95
2023-10-09T09:58:22.767Z,55.79
2023-10-09T10:00:54.784Z,53.52
2023-10-09T10:03:30.361Z,52.70
2023-10-09T10:05:59.287Z,52.72
2023-10-09T10:08:28.089Z,52.90
2023-10-09T10:10:55.883Z,52.40
2023-10-09T10:13:58.068Z,52.47
2023-10-09T10:16:25.149Z,52.69
2023-10-09T10:18:57.910Z,52.73
2023-10-09T10:21:27.137Z,51.83
2023-10-09T10:23:56.448Z,52.70
2023-10-09T10:26:25.358Z,54.23
2023-10-09T10:29:20.141Z,55.77
2023-10-09T10:31:57.811Z,56.16
2023-10-09T10:34:26.340Z,56.36
2023-10-09T10:36:54.651Z,56.55
2023-10-09T10:39:23.982Z,55.39
2023-10-09T10:42:02.093Z,55.66
2023-10-09T10:44:46.921Z,54.69
2023-10-09T10:47:14.706Z,54.56
2023-10-09T10:49:45.601Z,54.45
2023-10-09T10:52:22.540Z,53.52
2023-10-09T10:54:52.268Z,52.29
2023-10-09T10:57:21.587Z,51.67
2023-10-09T10:59:48.817Z,50.41
2023-10-09T11:02:19.253Z,49.47
2023-10-09T11:04:50.323Z,48.96
2023-10-09T11:07:23.477Z,48.21
2023-10-09T11:09:56.951Z,48.07
2023-10-09T11:12:26.001Z,48.29
2023-10-09T11:14:53.110Z,49.00
2023-10-09T11:17:22.121Z,49.33
2023-10-09T11:19:49.856Z,49.84
2023-10-09T11:22:24.896Z,50.12
2023-10-09T11:24:54.410Z,51.46
2023-10-09T11:27:21.759Z,51.23
2023-10-09T11:29:52.804Z,51.66
2023-10-09T11:32:21.677Z,52.81
2023-10-09T11:34:50.184Z,55.22
2023-10-09T11:37:19.790Z,54.14
2023-10-09T11:39:46.897Z,54.03
2023-10-09T11:42:16.189Z,52.89
2023-10-09T11:44:44.754Z,52.67
2023-10-09T11:47:12.661Z,52.14
2023-10-09T11:49:49.799Z,51.42
2023-10-09T11:52:16.882Z,51.92
2023-10-09T11:54:43.790Z,52.01
2023-10-09T11:57:10.687Z,51.39
2023-10-09T11:59:39.206Z,51.50
2023-10-09T12:02:06.304Z,50.28
2023-10-09T12:04:33.688Z,50.18
2023-10-09T12:07:02.957Z,49.29
2023-10-09T12:09:31.325Z,48.91
2023-10-09T12:12:04.245Z,47.26
2023-10-09T12:14:32.479Z,48.20
2023-10-09T12:17:01.603Z,48.55
2023-10-09T12:19:29.199Z,48.07
2023-10-09T12:21:57.366Z,48.47
2023-10-09T12:24:24.257Z,49.08
2023-10-09T12:26:53.036Z,48.63
2023-10-09T12:29:20.695Z,47.99
2023-10-09T12:31:49.986Z,47.70
2023-10-09T12:34:18.544Z,47.33
2023-10-09T12:36:46.492Z,48.64
2023-10-09T12:39:13.365Z,48.87
2023-10-09T12:41:41.075Z,48.74
2023-10-09T12:44:08.102Z,48.25
2023-10-09T12:46:36.280Z,48.24
2023-10-09T12:49:03.245Z,47.95
2023-10-09T12:51:31.825Z,47.98
2023-10-09T12:54:02.124Z,46.90
2023-10-09T12:56:29.761Z,47.20
2023-10-09T12:58:56.896Z,43.62
2023-10-09T13:01:23.937Z,42.42
2023-10-09T13:03:51.354Z,43.56
2023-10-09T13:06:18.882Z,42.70
2023-10-09T13:08:47.190Z,44.12
2023-10-09T13:11:14.103Z,42.53
2023-10-09T13:13:42.774Z,41.04
2023-10-09T13:16:12.527Z,40.95
2023-10-09T13:18:41.556Z,41.22
2023-10-09T13:21:08.746Z,40.85
2023-10-09T13:23:36.066Z,40.91
2023-10-09T13:26:06.339Z,40.71
2023-10-09T13:28:36.608Z,40.79
2023-10-09T13:31:03.486Z,40.48
2023-10-09T13:33:30.701Z,42.58
2023-10-09T13:35:57.693Z,42.67
2023-10-09T13:38:27.173Z,41.02
2023-10-09T13:40:58.996Z,41.29
2023-10-09T13:43:27.220Z,41.73
2023-10-09T13:45:54.435Z,41.30
2023-10-09T13:48:21.702Z,40.85
2023-10-09T13:50:52.115Z,40.50
2023-10-09T13:53:21.054Z,42.99
2023-10-09T13:55:48.128Z,42.21
2023-10-09T13:58:15.611Z,42.84
2023-10-09T14:00:44.600Z,42.50
2023-10-09T14:03:12.101Z,42.57
2023-10-09T14:05:40.556Z,40.81
2023-10-09T14:08:08.077Z,41.12
2023-10-09T14:10:38.411Z,41.33
2023-10-09T14:13:06.874Z,42.02
2023-10-09T14:15:34.724Z,41.55
2023-10-09T14:18:05.011Z,41.30
2023-10-09T14:20:32.581Z,41.62
2023-10-09T14:23:00.984Z,41.77
2023-10-09T14:25:32.654Z,41.15
2023-10-09T14:27:59.770Z,40.67
2023-10-09T14:30:27.389Z,42.00
2023-10-09T14:32:58.265Z,40.63
2023-10-09T14:35:27.912Z,41.19
2023-10-09T14:37:56.267Z,40.36
2023-10-09T14:40:24.623Z,40.16
2023-10-09T14:42:53.401Z,40.06
2023-10-09T14:45:27.698Z,41.31
2023-10-09T14:47:55.187Z,41.19
2023-10-09T14:50:22.545Z,40.93
2023-10-09T14:52:52.422Z,41.70
2023-10-09T14:55:20.616Z,40.21
2023-10-09T14:57:49.183Z,40.20
2023-10-09T15:00:17.951Z,40.88
2023-10-09T15:02:45.470Z,38.68
2023-10-09T15:05:13.445Z,38.43
2023-10-09T15:07:41.761Z,39.65
2023-10-09T15:10:12.818Z,39.35
2023-10-09T15:12:40.213Z,38.58
2023-10-09T15:15:09.664Z,37.34
2023-10-09T15:17:36.832Z,38.32
2023-10-09T15:20:05.653Z,38.47
2023-10-09T15:22:33.553Z,39.95
2023-10-09T15:25:01.747Z,40.58
2023-10-09T15:27:30.140Z,40.49
2023-10-09T15:29:57.712Z,41.80
2023-10-09T15:32:25.041Z,42.09
2023-10-09T15:34:56.874Z,44.07
2023-10-09T15:37:27.595Z,44.72
2023-10-09T15:39:55.285Z,43.26
2023-10-09T15:42:23.622Z,42.52
2023-10-09T15:44:53.848Z,43.31
2023-10-09T15:47:20.798Z,43.71
2023-10-09T15:49:47.761Z,43.73
2023-10-09T15:52:14.948Z,44.96
2023-10-09T15:54:41.891Z,43.88
2023-10-09T15:57:14.035Z,44.07
2023-10-09T15:59:41.532Z,44.82
2023-10-09T16:02:10.539Z,45.48
2023-10-09T16:04:37.531Z,46.49
2023-10-09T16:07:08.294Z,48.63
2023-10-09T16:09:35.229Z,50.70
2023-10-09T16:12:03.460Z,52.50
2023-10-09T16:14:30.783Z,52.74
2023-10-09T16:16:57.743Z,56.57
2023-10-09T16:19:26.173Z,58.79
2023-10-09T16:21:53.224Z,58.06
2023-10-09T16:24:22.615Z,58.52
2023-10-09T16:26:49.993Z,57.95
2023-10-09T16:29:17.321Z,58.94
2023-10-09T16:31:44.717Z,60.50
2023-10-09T16:34:11.871Z,61.32
2023-10-09T16:36:40.156Z,59.70
2023-10-09T16:39:07.192Z,58.16
2023-10-09T16:41:34.114Z,58.10
2023-10-09T16:44:01.900Z,58.81
2023-10-09T16:46:29.061Z,59.28
2023-10-09T16:48:55.941Z,60.57
2023-10-09T16:51:23.076Z,61.43
2023-10-09T16:53:52.430Z,61.96
2023-10-09T16:56:20.281Z,61.76
2023-10-09T16:58:47.746Z,62.02
2023-10-09T17:01:17.367Z,62.50
2023-10-09T17:03:45.273Z,62.49
2023-10-09T17:06:13.890Z,62.73
2023-10-09T17:08:41.633Z,61.86
2023-10-09T17:11:10.389Z,61.02
2023-10-09T17:13:37.305Z,59.73
2023-10-09T17:16:04.365Z,60.81
2023-10-09T17:18:31.369Z,61.93
2023-10-09T17:20:58.300Z,62.89
2023-10-09T17:23:25.374Z,62.78
2023-10-09T17:25:52.685Z,64.88
2023-10-09T17:28:21.005Z,64.96
2023-10-09T17:30:48.889Z,65.53
2023-10-09T17:33:16.985Z,64.15
2023-10-09T17:35:44.425Z,63.00
2023-10-09T17:38:11.709Z,62.59
2023-10-09T17:40:45.987Z,62.52
2023-10-09T17:43:12.953Z,63.76
2023-10-09T17:45:41.825Z,63.57
2023-10-09T17:48:10.619Z,64.28
2023-10-09T17:50:43.875Z,65.78
2023-10-09T17:53:14.830Z,65.18
2023-10-09T17:55:44.567Z,66.33
2023-10-09T17:58:13.566Z,65.88
2023-10-09T18:00:44.246Z,66.98
2023-10-09T18:03:16.221Z,67.78
2023-10-09T18:05:45.018Z,68.92
2023-10-09T18:08:14.261Z,68.72
2023-10-09T18:10:44.361Z,69.09
2023-10-09T18:13:13.534Z,68.50
2023-10-09T18:15:42.540Z,69.40
2023-10-09T18:18:15.682Z,68.90
2023-10-09T18:21:14.781Z,69.54
2023-10-09T18:23:43.682Z,69.27
2023-10-09T18:26:11.419Z,68.88
2023-10-09T18:28:38.750Z,68.60
2023-10-09T18:31:13.296Z,69.18
2023-10-09T18:33:46.167Z,69.57
2023-10-09T18:36:13.171Z,69.92
2023-10-09T18:38:40.832Z,70.48
2023-10-09T18:41:11.459Z,70.37
2023-10-09T18:43:38.597Z,70.08
2023-10-09T18:46:05.630Z,70.09
2023-10-09T18:48:34.580Z,70.05
2023-10-09T18:51:01.924Z,69.73
2023-10-09T18:53:29.129Z,69.11
2023-10-09T18:55:59.445Z,68.50
2023-10-09T18:58:26.474Z,68.14
2023-10-09T19:00:55.111Z,68.38
2023-10-09T19:03:22.822Z,67.68
2023-10-09T19:05:51.540Z,68.31
2023-10-09T19:08:18.610Z,68.14
2023-10-09T19:10:45.902Z,68.52
2023-10-09T19:13:13.766Z,69.09
2023-10-09T19:15:41.586Z,69.02
2023-10-09T19:18:09.072Z,68.61
2023-10-09T19:20:38.900Z,68.27
2023-10-09T19:23:08.015Z,69.08
2023-10-09T19:25:35.163Z,68.44
2023-10-09T19:28:02.484Z,68.68
2023-10-09T19:30:29.776Z,69.09
2023-10-09T19:32:56.806Z,68.72
2023-10-09T19:35:26.687Z,68.80
2023-10-09T19:37:53.817Z,68.79
2023-10-09T19:40:29.263Z,68.96
2023-10-09T19:42:57.543Z,70.17
2023-10-09T19:45:26.725Z,71.13
2023-10-09T19:47:53.825Z,70.57
2023-10-09T19:50:24.664Z,69.27
2023-10-09T19:52:51.883Z,69.68
2023-10-09T19:55:19.149Z,69.70
2023-10-09T19:57:47.769Z,70.71
2023-10-09T20:00:15.903Z,69.76
2023-10-09T20:02:43.099Z,68.99
2023-10-09T20:05:12.133Z,69.22
2023-10-09T20:07:39.377Z,69.53
2023-10-09T20:10:08.154Z,69.46
2023-10-09T20:12:38.093Z,69.26
2023-10-09T20:15:08.541Z,69.38
2023-10-09T20:17:36.021Z,69.77
2023-10-09T20:20:03.331Z,70.14
2023-10-09T20:22:32.107Z,70.03
2023-10-09T20:24:59.056Z,69.46
2023-10-09T20:27:26.732Z,70.15
2023-10-09T20:29:55.009Z,71.39
2023-10-09T20:32:23.833Z,71.39
2023-10-09T20:34:51.012Z,71.02
2023-10-09T20:37:18.087Z,71.34
2023-10-09T20:39:52.732Z,71.11
2023-10-09T20:42:19.724Z,71.14
2023-10-09T20:44:51.177Z,70.80
2023-10-09T20:47:44.484Z,70.97
2023-10-09T20:50:12.142Z,71.06
2023-10-09T20:52:39.086Z,68.65
2023-10-09T20:55:07.100Z,67.91
2023-10-09T20:57:34.015Z,67.65
2023-10-09T21:00:00.925Z,66.69
2023-10-09T21:02:28.310Z,67.58
2023-10-09T21:04:58.090Z,68.10
2023-10-09T21:07:25.607Z,69.31
2023-10-09T21:09:52.595Z,69.62
2023-10-09T21:12:19.856Z,70.09
2023-10-09T21:14:47.146Z,71.44
2023-10-09T21:17:14.496Z,72.41
2023-10-09T21:19:42.552Z,73.46
2023-10-09T21:22:10.849Z,74.03
2023-10-09T21:24:37.996Z,74.25
2023-10-09T21:27:05.201Z,74.17
2023-10-09T21:29:32.323Z,73.89
2023-10-09T21:32:00.120Z,74.53
2023-10-09T21:34:27.718Z,75.03
2023-10-09T21:36:56.381Z,74.90
2023-10-09T21:39:27.969Z,74.21
2023-10-09T21:41:57.352Z,73.46
2023-10-09T21:44:25.992Z,72.85
2023-10-09T21:46:55.391Z,73.27
2023-10-09T21:49:22.625Z,72.75
2023-10-09T21:51:50.102Z,72.41
2023-10-09T21:54:18.665Z,72.56
2023-10-09T21:56:47.229Z,71.74
2023-10-09T21:59:15.256Z,72.00
2023-10-09T22:01:43.552Z,72.25
2023-10-09T22:04:10.774Z,72.51
2023-10-09T22:06:37.964Z,71.97
2023-10-09T22:09:05.937Z,73.13
2023-10-09T22:11:33.057Z,73.64
2023-10-09T22:14:03.351Z,71.56
2023-10-09T22:16:31.128Z,71.25
2023-10-09T22:19:13.070Z,72.25
2023-10-09T22:21:43.729Z,74.40
2023-10-09T22:24:19.385Z,75.14
2023-10-09T22:26:50.429Z,75.54
2023-10-09T22:29:19.326Z,74.47
2023-10-09T22:31:48.051Z,75.03
2023-10-09T22:34:17.301Z,75.23
2023-10-09T22:36:53.076Z,75.51
2023-10-09T22:39:25.174Z,75.51
2023-10-09T22:41:59.923Z,75.58
2023-10-09T22:44:30.618Z,75.39
2023-10-09T22:46:57.923Z,75.67
2023-10-09T22:49:25.205Z,75.80
2023-10-09T22:51:52.798Z,75.91
2023-10-09T22:54:20.979Z,75.87
2023-10-09T22:56:47.856Z,75.66
2023-10-09T22:59:14.941Z,75.75
2023-10-09T23:01:43.579Z,75.74
2023-10-09T23:04:10.630Z,75.41
2023-10-09T23:06:38.641Z,75.26
2023-10-09T23:09:05.705Z,74.57
2023-10-09T23:11:32.935Z,74.22
2023-10-09T23:14:00.092Z,74.29
2023-10-09T23:16:27.094Z,74.21
2023-10-09T23:18:55.417Z,76.58
2023-10-09T23:21:22.402Z,76.62
2023-10-09T23:23:50.473Z,76.89
2023-10-09T23:26:18.661Z,77.41
2023-10-09T23:28:45.605Z,77.85
2023-10-09T23:31:15.397Z,78.44
2023-10-09T23:33:42.400Z,78.77
2023-10-09T23:36:10.695Z,79.01
2023-10-09T23:38:37.600Z,78.77
2023-10-09T23:41:04.739Z,78.54
2023-10-09T23:43:31.761Z,77.75
2023-10-09T23:45:59.244Z,77.55
2023-10-09T23:48:27.440Z,77.15
2023-10-09T23:50:55.740Z,77.97
2023-10-09T23:53:24.463Z,78.34
2023-10-09T23:55:53.014Z,78.71
2023-10-09T23:58:21.064Z,80.35
